createdAt,value
2019-01-13T00:01:26.987Z,12.17
2019-01-13T00:03:58.006Z,16.27
2019-01-13T00:06:28.956Z,25.47
2019-01-13T00:08:59.887Z,17.77
2019-01-13T00:11:30.764Z,22.50
2019-01-13T00:14:01.645Z,11.20
2019-01-13T00:16:32.891Z,16.97
2019-01-13T00:19:03.783Z,17.70
2019-01-13T00:21:34.660Z,21.53
2019-01-13T00:24:05.579Z,15.23
2019-01-13T00:26:36.473Z,12.20
2019-01-13T00:29:08.134Z,13.17
2019-01-13T00:31:39.090Z,18.63
2019-01-13T00:34:09.962Z,18.67
2019-01-13T00:36:40.952Z,12.27
2019-01-13T00:39:12.176Z,12.03
2019-01-13T00:41:43.340Z,22.23
2019-01-13T00:44:14.352Z,12.57
2019-01-13T00:46:45.636Z,24.83
2019-01-13T00:49:16.784Z,13.63
2019-01-13T00:51:47.664Z,13.57
2019-01-13T00:54:18.584Z,7.57
2019-01-13T00:56:49.527Z,18.37
2019-01-13T00:59:20.390Z,12.17
2019-01-13T01:01:51.795Z,11.40
2019-01-13T01:04:22.703Z,21.83
2019-01-13T01:06:53.650Z,11.23
2019-01-13T01:09:24.735Z,9.00
2019-01-13T01:11:55.807Z,6.27
2019-01-13T01:14:26.691Z,7.50
2019-01-13T01:16:57.624Z,8.43
2019-01-13T01:19:28.502Z,11.60
2019-01-13T01:21:59.373Z,14.40
2019-01-13T01:24:30.295Z,10.67
2019-01-13T01:27:01.238Z,11.53
2019-01-13T01:29:32.110Z,11.33
2019-01-13T01:32:03.079Z,10.07
2019-01-13T01:34:33.964Z,9.10
2019-01-13T01:37:04.831Z,12.90
2019-01-13T01:39:35.787Z,9.77
2019-01-13T01:42:06.846Z,15.60
2019-01-13T01:44:37.811Z,7.10
2019-01-13T01:47:08.724Z,11.43
2019-01-13T01:49:39.616Z,10.63
2019-01-13T01:52:10.549Z,6.33
2019-01-13T01:54:41.467Z,9.60
2019-01-13T01:57:12.328Z,8.27
2019-01-13T01:59:44.403Z,16.20
2019-01-13T02:02:15.319Z,10.57
2019-01-13T02:04:46.498Z,6.37
2019-01-13T02:07:17.410Z,11.30
2019-01-13T02:09:48.336Z,10.80
2019-01-13T02:12:19.490Z,11.27
2019-01-13T02:14:50.357Z,12.97
2019-01-13T02:17:21.280Z,8.43
2019-01-13T02:19:52.456Z,9.17
2019-01-13T02:22:23.661Z,13.67
2019-01-13T02:24:54.589Z,12.33
2019-01-13T02:27:25.751Z,10.33
2019-01-13T02:29:56.619Z,9.50
2019-01-13T02:32:27.521Z,9.37
2019-01-13T02:34:58.381Z,9.20
2019-01-13T02:37:29.267Z,15.43
2019-01-13T02:40:00.285Z,8.60
2019-01-13T02:42:31.242Z,7.57
2019-01-13T02:45:02.116Z,8.53
2019-01-13T02:47:33.324Z,8.83
2019-01-13T02:50:04.469Z,11.73
2019-01-13T02:52:35.401Z,7.20
2019-01-13T02:55:06.969Z,12.50
2019-01-13T02:57:38.211Z,11.53
2019-01-13T03:00:14.467Z,16.27
2019-01-13T03:02:45.496Z,16.03
2019-01-13T03:05:17.060Z,14.60
2019-01-13T03:07:48.058Z,18.47
2019-01-13T03:10:24.935Z,17.10
2019-01-13T03:12:56.131Z,21.40
2019-01-13T03:15:28.059Z,13.37
2019-01-13T03:17:59.296Z,13.87
2019-01-13T03:20:30.632Z,13.33
2019-01-13T03:23:01.489Z,28.87
2019-01-13T03:25:32.645Z,18.97
2019-01-13T03:28:03.580Z,17.20
2019-01-13T03:30:34.528Z,14.53
2019-01-13T03:33:05.490Z,8.77
2019-01-13T03:35:36.485Z,29.73
2019-01-13T03:38:07.471Z,27.13
2019-01-13T03:40:39.085Z,17.77
2019-01-13T03:43:10.406Z,13.53
2019-01-13T03:45:41.268Z,17.93
2019-01-13T03:48:12.532Z,11.60
2019-01-13T03:50:43.534Z,19.80
2019-01-13T03:53:14.464Z,16.47
2019-01-13T03:55:45.330Z,11.40
2019-01-13T03:58:16.322Z,10.83
2019-01-13T04:00:47.194Z,19.10
2019-01-13T04:03:18.060Z,23.83
2019-01-13T04:05:48.983Z,18.03
2019-01-13T04:08:20.139Z,23.07
2019-01-13T04:10:51.032Z,13.40
2019-01-13T04:13:22.002Z,15.80
2019-01-13T04:16:02.162Z,28.90
2019-01-13T04:18:33.092Z,21.07
2019-01-13T04:21:04.083Z,18.30
2019-01-13T04:23:34.941Z,19.70
2019-01-13T04:26:05.842Z,9.67
2019-01-13T04:28:36.707Z,12.03
2019-01-13T04:31:07.582Z,15.53
2019-01-13T04:33:38.511Z,10.17
2019-01-13T04:36:09.477Z,14.30
2019-01-13T04:38:40.343Z,12.80
2019-01-13T04:41:11.293Z,10.17
2019-01-13T04:43:42.197Z,15.83
2019-01-13T04:46:14.106Z,9.77
2019-01-13T04:48:45.025Z,23.13
2019-01-13T04:51:15.893Z,19.00
2019-01-13T04:53:46.755Z,22.17
2019-01-13T04:56:17.684Z,20.67
2019-01-13T04:58:48.564Z,18.10
2019-01-13T05:01:19.744Z,12.30
2019-01-13T05:03:50.724Z,12.90
2019-01-13T05:06:21.899Z,12.13
2019-01-13T05:08:52.858Z,16.43
2019-01-13T05:11:23.832Z,15.10
2019-01-13T05:13:54.718Z,15.80
2019-01-13T05:16:25.591Z,17.80
2019-01-13T05:18:56.513Z,17.03
2019-01-13T05:21:27.383Z,16.83
2019-01-13T05:23:58.819Z,12.20
2019-01-13T05:26:29.732Z,15.63
2019-01-13T05:29:00.702Z,14.30
2019-01-13T05:31:31.556Z,21.10
2019-01-13T05:34:02.466Z,7.40
2019-01-13T05:36:33.331Z,20.23
2019-01-13T05:39:05.425Z,21.13
2019-01-13T05:41:36.334Z,10.93
2019-01-13T05:44:07.196Z,18.87
2019-01-13T05:46:38.081Z,17.80
2019-01-13T05:49:09.069Z,8.60
2019-01-13T05:51:40.272Z,10.30
2019-01-13T05:54:11.151Z,15.77
2019-01-13T05:56:42.358Z,12.50
2019-01-13T05:59:13.226Z,10.70
2019-01-13T06:01:49.115Z,29.30
2019-01-13T06:04:16.738Z,21.53
2019-01-13T06:06:47.631Z,10.67
2019-01-13T06:09:18.502Z,15.53
2019-01-13T06:11:49.419Z,8.33
2019-01-13T06:14:20.277Z,11.30
2019-01-13T06:16:51.427Z,8.97
2019-01-13T06:19:22.375Z,12.10
2019-01-13T06:21:53.529Z,10.10
2019-01-13T06:24:24.408Z,10.93
2019-01-13T06:26:55.325Z,13.03
2019-01-13T06:29:26.185Z,7.73
2019-01-13T06:31:57.337Z,11.40
2019-01-13T06:34:28.258Z,7.43
2019-01-13T06:36:59.137Z,12.17
2019-01-13T06:39:30.018Z,11.53
2019-01-13T06:42:00.920Z,14.80
2019-01-13T06:44:31.780Z,10.67
2019-01-13T06:47:02.688Z,13.23
2019-01-13T06:49:33.869Z,11.33
2019-01-13T06:52:04.752Z,14.03
2019-01-13T06:54:35.960Z,18.57
2019-01-13T06:57:06.871Z,14.43
2019-01-13T06:59:37.720Z,15.43
2019-01-13T07:02:08.616Z,19.30
2019-01-13T07:04:40.625Z,12.20
2019-01-13T07:07:11.554Z,12.30
2019-01-13T07:09:42.495Z,10.37
2019-01-13T07:12:13.411Z,16.80
2019-01-13T07:14:44.274Z,10.90
2019-01-13T07:17:15.527Z,11.00
2019-01-13T07:19:46.545Z,11.07
2019-01-13T07:22:17.407Z,13.77
2019-01-13T07:24:48.275Z,15.87
2019-01-13T07:27:19.221Z,15.13
2019-01-13T07:29:50.134Z,14.10
2019-01-13T07:32:21.923Z,10.93
2019-01-13T07:34:52.827Z,11.80
2019-01-13T07:37:23.719Z,14.27
2019-01-13T07:39:54.631Z,14.10
2019-01-13T07:42:25.574Z,23.80
2019-01-13T07:44:56.523Z,15.50
2019-01-13T07:47:27.419Z,12.63
2019-01-13T07:49:58.350Z,12.40
2019-01-13T07:52:29.256Z,9.70
2019-01-13T07:55:00.169Z,10.93
2019-01-13T07:57:31.100Z,6.13
2019-01-13T08:00:01.989Z,14.57
2019-01-13T08:02:32.889Z,14.53
2019-01-13T08:05:03.838Z,12.73
2019-01-13T08:07:35.007Z,10.20
2019-01-13T08:10:08.004Z,11.80
2019-01-13T08:12:38.935Z,8.37
2019-01-13T08:15:11.844Z,7.37
2019-01-13T08:17:43.006Z,6.00
2019-01-13T08:20:21.674Z,9.97
2019-01-13T08:22:52.790Z,11.10
2019-01-13T08:25:24.326Z,7.33
2019-01-13T08:27:55.536Z,8.03
2019-01-13T08:30:26.721Z,5.93
2019-01-13T08:32:57.712Z,6.33
2019-01-13T08:35:29.001Z,5.60
2019-01-13T08:37:59.852Z,5.97
2019-01-13T08:40:30.759Z,5.90
2019-01-13T08:43:01.641Z,6.30
2019-01-13T08:45:32.585Z,5.53
2019-01-13T08:48:03.474Z,4.67
2019-01-13T08:50:34.656Z,6.93
2019-01-13T08:53:05.538Z,5.30
2019-01-13T08:55:36.708Z,4.50
2019-01-13T08:58:07.631Z,7.70
2019-01-13T09:00:38.503Z,5.50
2019-01-13T09:03:10.094Z,4.93
2019-01-13T09:05:40.981Z,4.20
2019-01-13T09:08:11.839Z,3.40
2019-01-13T09:10:42.750Z,4.33
2019-01-13T09:13:13.909Z,4.27
2019-01-13T09:15:45.070Z,5.43
2019-01-13T09:18:15.968Z,7.70
2019-01-13T09:20:46.851Z,3.90
2019-01-13T09:23:17.793Z,4.60
2019-01-13T09:25:48.664Z,4.60
2019-01-13T09:28:19.544Z,6.50
2019-01-13T09:30:50.470Z,3.30
2019-01-13T09:33:21.346Z,2.90
2019-01-13T09:35:52.319Z,3.07
2019-01-13T09:38:24.787Z,2.77
2019-01-13T09:40:55.667Z,2.47
2019-01-13T09:43:26.585Z,1.90
2019-01-13T09:45:57.475Z,1.80
2019-01-13T09:48:28.747Z,1.70
2019-01-13T09:50:59.622Z,3.27
2019-01-13T09:53:30.510Z,1.87
2019-01-13T09:56:01.488Z,1.83
2019-01-13T09:58:32.353Z,1.50
2019-01-13T10:01:03.380Z,1.53
2019-01-13T10:03:34.252Z,2.20
2019-01-13T10:06:05.640Z,1.63
2019-01-13T10:08:36.852Z,3.43
2019-01-13T10:11:07.800Z,1.60
2019-01-13T10:13:38.998Z,2.47
2019-01-13T10:16:09.891Z,1.77
2019-01-13T10:18:40.852Z,1.60
2019-01-13T10:21:11.790Z,2.07
2019-01-13T10:23:42.657Z,1.40
2019-01-13T10:26:13.582Z,1.60
2019-01-13T10:28:44.551Z,1.43
2019-01-13T10:31:15.434Z,2.43
2019-01-13T10:33:46.667Z,1.80
2019-01-13T10:36:17.943Z,1.50
2019-01-13T10:38:48.906Z,2.60
2019-01-13T10:41:19.862Z,1.67
2019-01-13T10:43:50.738Z,4.60
2019-01-13T10:46:21.936Z,1.73
2019-01-13T10:48:53.168Z,2.27
2019-01-13T10:51:24.166Z,1.67
2019-01-13T10:53:55.033Z,1.53
2019-01-13T10:56:26.197Z,1.47
2019-01-13T10:58:57.104Z,1.30
2019-01-13T11:01:28.200Z,1.47
2019-01-13T11:03:59.289Z,1.73
2019-01-13T11:06:30.445Z,2.83
2019-01-13T11:09:01.318Z,2.50
2019-01-13T11:11:32.302Z,1.93
2019-01-13T11:14:03.247Z,2.40
2019-01-13T11:16:34.168Z,2.83
2019-01-13T11:19:05.166Z,1.50
2019-01-13T11:21:36.048Z,1.93
2019-01-13T11:24:06.956Z,1.57
2019-01-13T11:26:37.897Z,3.13
2019-01-13T11:29:09.110Z,1.70
2019-01-13T11:31:40.052Z,2.37
2019-01-13T11:34:10.910Z,1.80
2019-01-13T11:36:41.829Z,1.97
2019-01-13T11:39:12.707Z,2.20
2019-01-13T11:41:44.981Z,2.00
2019-01-13T11:44:15.870Z,2.90
2019-01-13T11:46:46.756Z,2.00
2019-01-13T11:49:20.290Z,1.90
2019-01-13T11:51:51.234Z,2.17
2019-01-13T11:54:22.989Z,2.57
2019-01-13T11:56:54.181Z,2.60
2019-01-13T11:59:25.354Z,3.00
2019-01-13T12:01:56.850Z,4.70
2019-01-13T12:04:27.849Z,6.03
2019-01-13T12:06:58.767Z,2.83
2019-01-13T12:09:29.721Z,2.47
2019-01-13T12:12:00.728Z,3.20
2019-01-13T12:14:32.063Z,3.27
2019-01-13T12:17:03.243Z,3.30
2019-01-13T12:19:34.413Z,3.40
2019-01-13T12:22:06.246Z,4.50
2019-01-13T12:24:37.208Z,3.80
2019-01-13T12:27:08.424Z,4.70
2019-01-13T12:29:39.699Z,3.73
2019-01-13T12:32:10.598Z,4.20
2019-01-13T12:34:41.579Z,4.23
2019-01-13T12:37:12.493Z,5.10
2019-01-13T12:39:43.464Z,5.10
2019-01-13T12:42:14.365Z,3.70
2019-01-13T12:44:45.284Z,3.87
2019-01-13T12:47:16.852Z,4.17
2019-01-13T12:49:47.738Z,4.30
2019-01-13T12:52:22.570Z,4.70
2019-01-13T12:54:53.446Z,3.60
2019-01-13T12:57:24.325Z,4.03
2019-01-13T12:59:55.572Z,4.03
2019-01-13T13:02:26.777Z,3.70
2019-01-13T13:04:58.007Z,4.03
2019-01-13T13:07:28.930Z,3.60
2019-01-13T13:09:59.822Z,4.10
2019-01-13T13:12:30.783Z,5.03
2019-01-13T13:15:01.960Z,5.47
2019-01-13T13:18:26.483Z,5.07
2019-01-13T13:20:57.414Z,4.83
2019-01-13T13:23:28.648Z,7.00
2019-01-13T13:25:59.589Z,6.33
2019-01-13T13:28:30.439Z,8.00
2019-01-13T13:31:01.365Z,3.90
2019-01-13T13:33:38.775Z,5.17
2019-01-13T13:36:09.435Z,5.50
2019-01-13T13:38:40.468Z,6.10
2019-01-13T13:41:13.907Z,5.07
2019-01-13T13:43:42.145Z,7.43
2019-01-13T13:46:13.125Z,5.03
2019-01-13T13:48:44.022Z,4.30
2019-01-13T13:51:15.316Z,5.23
2019-01-13T13:53:46.246Z,7.90
2019-01-13T13:56:17.167Z,8.73
2019-01-13T13:58:49.687Z,7.73
2019-01-13T14:01:20.629Z,7.40
2019-01-13T14:03:51.962Z,12.83
2019-01-13T14:06:23.222Z,7.97
2019-01-13T14:08:55.252Z,6.67
2019-01-13T14:11:26.504Z,7.27
2019-01-13T14:13:58.035Z,4.40
2019-01-13T14:16:29.027Z,4.67
2019-01-13T14:18:59.951Z,3.83
2019-01-13T14:21:30.867Z,5.03
2019-01-13T14:24:02.030Z,4.97
2019-01-13T14:26:33.218Z,3.63
2019-01-13T14:29:04.188Z,5.20
2019-01-13T14:31:36.498Z,5.00
2019-01-13T14:34:08.493Z,4.53
2019-01-13T14:36:39.668Z,5.13
2019-01-13T14:39:10.878Z,5.50
2019-01-13T14:41:41.770Z,5.70
2019-01-13T14:44:12.690Z,7.43
2019-01-13T14:46:43.649Z,5.40
2019-01-13T14:49:14.554Z,5.57
2019-01-13T14:51:45.466Z,7.00
2019-01-13T14:54:16.629Z,5.57
2019-01-13T14:56:48.716Z,4.70
2019-01-13T14:59:19.622Z,6.53
2019-01-13T15:01:50.500Z,4.30
2019-01-13T15:04:33.317Z,4.20
2019-01-13T15:07:04.214Z,5.23
2019-01-13T15:09:35.816Z,4.70
2019-01-13T15:12:07.074Z,6.07
2019-01-13T15:14:37.961Z,2.53
2019-01-13T15:17:08.891Z,2.17
2019-01-13T15:19:39.767Z,2.43
2019-01-13T15:22:10.740Z,2.53
2019-01-13T15:24:41.620Z,2.53
2019-01-13T15:27:12.818Z,3.77
2019-01-13T15:29:46.334Z,2.00
2019-01-13T15:32:19.522Z,2.70
2019-01-13T15:34:51.519Z,2.70
2019-01-13T15:37:22.393Z,2.50
2019-01-13T15:39:53.283Z,3.53
2019-01-13T15:42:24.185Z,5.70
2019-01-13T15:44:55.357Z,3.77
2019-01-13T15:47:26.589Z,4.23
2019-01-13T15:49:57.767Z,3.83
2019-01-13T15:52:28.648Z,5.30
2019-01-13T15:54:59.979Z,2.30
2019-01-13T15:57:30.845Z,2.80
2019-01-13T16:00:01.785Z,2.90
2019-01-13T16:02:33.043Z,2.90
2019-01-13T16:05:04.049Z,3.30
2019-01-13T16:07:34.962Z,2.80
2019-01-13T16:10:08.643Z,2.80
2019-01-13T16:12:39.917Z,1.70
2019-01-13T16:15:11.639Z,1.47
2019-01-13T16:17:42.803Z,2.17
2019-01-13T16:20:24.171Z,2.47
2019-01-13T16:22:55.061Z,3.67
2019-01-13T16:25:25.977Z,2.50
2019-01-13T16:27:56.859Z,5.00
2019-01-13T16:30:29.245Z,3.10
2019-01-13T16:33:00.144Z,6.73
2019-01-13T16:35:31.118Z,4.77
2019-01-13T16:38:02.358Z,8.83
2019-01-13T16:40:33.215Z,4.33
2019-01-13T16:43:04.104Z,6.83
2019-01-13T16:45:35.309Z,7.73
2019-01-13T16:48:07.221Z,7.63
2019-01-13T16:50:38.430Z,4.00
2019-01-13T16:53:09.303Z,7.40
2019-01-13T16:55:43.354Z,5.10
2019-01-13T16:58:14.541Z,2.80
2019-01-13T17:00:45.432Z,4.63
2019-01-13T17:03:16.499Z,3.07
2019-01-13T17:05:48.461Z,4.10
2019-01-13T17:08:19.685Z,1.80
2019-01-13T17:10:50.642Z,2.30
2019-01-13T17:13:21.830Z,4.30
2019-01-13T17:15:52.767Z,3.03
2019-01-13T17:18:23.991Z,2.00
2019-01-13T17:20:55.236Z,6.07
2019-01-13T17:23:26.155Z,3.27
2019-01-13T17:25:59.370Z,11.30
2019-01-13T17:28:30.361Z,2.70
2019-01-13T17:31:01.270Z,11.07
2019-01-13T17:33:32.162Z,2.97
2019-01-13T17:36:03.069Z,10.87
2019-01-13T17:38:34.376Z,8.03
2019-01-13T17:41:05.304Z,8.93
2019-01-13T17:43:36.195Z,5.23
2019-01-13T17:46:07.273Z,14.53
2019-01-13T17:48:38.157Z,7.57
2019-01-13T17:51:09.389Z,8.70
2019-01-13T17:53:40.334Z,12.00
2019-01-13T17:56:11.522Z,10.83
2019-01-13T17:58:42.776Z,10.80
2019-01-13T18:01:54.485Z,15.57
2019-01-13T18:04:25.504Z,8.57
2019-01-13T18:06:56.430Z,14.00
2019-01-13T18:09:27.562Z,13.23
2019-01-13T18:11:58.740Z,9.40
2019-01-13T18:14:29.650Z,11.37
2019-01-13T18:17:06.417Z,11.60
2019-01-13T18:19:33.220Z,12.37
2019-01-13T18:22:05.716Z,17.53
2019-01-13T18:24:36.666Z,14.57
2019-01-13T18:27:07.618Z,15.07
2019-01-13T18:29:38.850Z,11.97
2019-01-13T18:32:09.861Z,18.23
2019-01-13T18:34:40.761Z,20.50
2019-01-13T18:37:11.731Z,13.70
2019-01-13T18:39:43.189Z,13.53
2019-01-13T18:42:14.115Z,25.33
2019-01-13T18:44:45.119Z,18.23
2019-01-13T18:47:18.855Z,23.70
2019-01-13T18:49:50.084Z,21.63
2019-01-13T18:52:21.270Z,12.50
2019-01-13T18:54:52.145Z,14.17
2019-01-13T18:57:23.885Z,10.50
2019-01-13T18:59:54.795Z,22.27
2019-01-13T19:02:26.076Z,23.17
2019-01-13T19:04:57.378Z,13.50
2019-01-13T19:07:30.099Z,17.13
2019-01-13T19:10:00.993Z,17.43
2019-01-13T19:12:32.257Z,15.10
2019-01-13T19:15:06.141Z,15.23
2019-01-13T19:17:37.394Z,11.87
2019-01-13T19:20:21.875Z,9.30
2019-01-13T19:22:56.940Z,10.30
2019-01-13T19:25:33.415Z,10.00
2019-01-13T19:28:04.419Z,6.70
2019-01-13T19:30:35.684Z,11.93
2019-01-13T19:33:06.916Z,12.97
2019-01-13T19:35:38.289Z,16.20
2019-01-13T19:38:09.723Z,7.53
2019-01-13T19:40:40.852Z,13.50
2019-01-13T19:43:12.614Z,9.43
2019-01-13T19:45:44.586Z,9.80
2019-01-13T19:48:20.710Z,10.27
2019-01-13T19:50:53.115Z,10.90
2019-01-13T19:53:24.814Z,11.10
2019-01-13T19:55:56.191Z,17.80
2019-01-13T19:58:27.614Z,8.50
2019-01-13T20:00:59.252Z,11.73
2019-01-13T20:03:30.534Z,16.37
2019-01-13T20:06:01.883Z,18.73
2019-01-13T20:08:33.206Z,15.83
2019-01-13T20:11:05.648Z,13.83
2019-01-13T20:13:38.362Z,10.70
2019-01-13T20:16:11.689Z,29.30
2019-01-13T20:18:43.884Z,15.93
2019-01-13T20:21:15.349Z,15.33
2019-01-13T20:23:46.536Z,16.60
2019-01-13T20:26:18.753Z,19.40
2019-01-13T20:28:50.216Z,31.07
2019-01-13T20:31:21.540Z,21.70
2019-01-13T20:33:55.848Z,27.37
2019-01-13T20:36:27.242Z,16.70
2019-01-13T20:38:59.652Z,21.90
2019-01-13T20:41:30.541Z,13.60
2019-01-13T20:44:01.462Z,22.87
2019-01-13T20:46:32.665Z,18.57
2019-01-13T20:49:03.918Z,22.10
2019-01-13T20:51:34.814Z,20.27
2019-01-13T20:54:07.997Z,29.37
2019-01-13T20:56:38.518Z,27.33
2019-01-13T20:59:09.444Z,25.93
2019-01-13T21:01:40.648Z,15.63
2019-01-13T21:04:11.551Z,19.20
2019-01-13T21:06:43.071Z,31.50
2019-01-13T21:09:14.002Z,15.53
2019-01-13T21:11:45.733Z,17.47
2019-01-13T21:14:16.695Z,26.70
2019-01-13T21:16:48.753Z,20.30
2019-01-13T21:19:19.685Z,21.40
2019-01-13T21:21:50.646Z,23.57
2019-01-13T21:24:21.575Z,24.60
2019-01-13T21:26:52.535Z,22.33
2019-01-13T21:29:23.434Z,25.07
2019-01-13T21:31:54.315Z,24.13
2019-01-13T21:34:25.239Z,20.30
2019-01-13T21:36:56.120Z,27.50
2019-01-13T21:39:27.033Z,14.00
2019-01-13T21:41:58.192Z,26.30
2019-01-13T21:44:30.947Z,24.53
2019-01-13T21:47:02.159Z,18.77
2019-01-13T21:49:33.101Z,26.73
2019-01-13T21:52:04.310Z,22.23
2019-01-13T21:54:35.206Z,23.10
2019-01-13T21:57:06.299Z,26.37
2019-01-13T21:59:37.193Z,31.77
2019-01-13T22:02:08.961Z,22.83
2019-01-13T22:04:39.951Z,25.23
2019-01-13T22:07:11.628Z,25.60
2019-01-13T22:09:42.552Z,24.97
2019-01-13T22:12:13.423Z,20.10
2019-01-13T22:14:44.362Z,23.50
2019-01-13T22:17:15.539Z,30.30
2019-01-13T22:19:46.420Z,33.80
2019-01-13T22:22:17.402Z,31.67
2019-01-13T22:24:48.316Z,23.83
2019-01-13T22:27:19.232Z,8.53
2019-01-13T22:29:50.099Z,15.00
2019-01-13T22:32:20.971Z,11.37
2019-01-13T22:34:51.877Z,14.03
2019-01-13T22:37:22.738Z,6.30
2019-01-13T22:39:53.651Z,6.57
2019-01-13T22:42:24.520Z,9.83
2019-01-13T22:44:55.394Z,17.07
2019-01-13T22:47:26.314Z,17.63
2019-01-13T22:49:57.176Z,24.57
2019-01-13T22:52:28.103Z,17.50
2019-01-13T22:54:59.053Z,20.03
2019-01-13T22:57:29.947Z,32.90
2019-01-13T23:00:01.209Z,16.00
2019-01-13T23:02:32.150Z,14.67
2019-01-13T23:05:03.134Z,15.43
2019-01-13T23:07:34.194Z,28.70
2019-01-13T23:10:05.714Z,14.23
2019-01-13T23:12:36.577Z,17.27
2019-01-13T23:15:07.921Z,26.73
2019-01-13T23:17:38.819Z,20.90
2019-01-13T23:20:10.384Z,22.40
2019-01-13T23:22:41.309Z,19.77
2019-01-13T23:25:12.202Z,25.60
2019-01-13T23:27:43.079Z,18.27
2019-01-13T23:30:14.035Z,14.50
2019-01-13T23:32:45.184Z,22.07
2019-01-13T23:35:16.099Z,25.57
2019-01-13T23:37:46.970Z,26.93
2019-01-13T23:40:17.843Z,23.63
2019-01-13T23:42:48.746Z,18.63
2019-01-13T23:45:19.608Z,26.97
2019-01-13T23:47:50.516Z,20.60
2019-01-13T23:50:21.389Z,23.53
2019-01-13T23:52:52.249Z,24.53
2019-01-13T23:55:23.218Z,38.70
2019-01-13T23:57:54.082Z,19.63
